createdAt,value
2023-02-27T00:01:01.800Z,99.90
2023-02-27T00:03:29.288Z,99.90
2023-02-27T00:05:57.305Z,99.90
2023-02-27T00:08:25.184Z,99.90
2023-02-27T00:10:52.982Z,99.90
2023-02-27T00:13:21.154Z,99.90
2023-02-27T00:15:51.999Z,99.90
2023-02-27T00:18:19.983Z,99.90
2023-02-27T00:20:48.656Z,99.90
2023-02-27T00:23:16.071Z,99.90
2023-02-27T00:25:43.665Z,99.90
2023-02-27T00:28:11.339Z,99.90
2023-02-27T00:30:38.774Z,99.90
2023-02-27T00:33:06.235Z,99.90
2023-02-27T00:35:33.698Z,99.90
2023-02-27T00:38:02.249Z,99.90
2023-02-27T00:40:29.782Z,99.90
2023-02-27T00:42:57.853Z,99.90
2023-02-27T00:45:25.432Z,99.90
2023-02-27T00:47:53.957Z,99.90
2023-02-27T00:50:21.562Z,99.90
2023-02-27T00:52:49.261Z,99.90
2023-02-27T00:55:16.972Z,99.90
2023-02-27T00:57:44.472Z,99.90
2023-02-27T01:00:12.907Z,99.90
2023-02-27T01:02:40.448Z,99.90
2023-02-27T01:05:09.082Z,99.90
2023-02-27T01:07:37.739Z,99.90
2023-02-27T01:10:07.788Z,99.90
2023-02-27T01:12:39.689Z,99.90
2023-02-27T01:15:09.990Z,99.90
2023-02-27T01:17:37.859Z,99.90
2023-02-27T01:20:07.741Z,99.90
2023-02-27T01:22:35.846Z,99.90
2023-02-27T01:25:04.436Z,99.90
2023-02-27T01:27:31.990Z,99.90
2023-02-27T01:29:59.980Z,99.90
2023-02-27T01:32:27.525Z,99.90
2023-02-27T01:34:55.549Z,99.90
2023-02-27T01:37:23.007Z,99.90
2023-02-27T01:39:50.457Z,99.90
2023-02-27T01:42:28.416Z,99.90
2023-02-27T01:45:12.100Z,99.90
2023-02-27T01:47:51.151Z,99.90
2023-02-27T01:50:19.645Z,99.90
2023-02-27T01:52:56.135Z,99.90
2023-02-27T01:55:28.134Z,99.90
2023-02-27T01:57:56.866Z,99.90
2023-02-27T02:00:25.445Z,99.90
2023-02-27T02:03:36.188Z,99.90
2023-02-27T02:06:07.332Z,99.90
2023-02-27T02:08:42.174Z,99.90
2023-02-27T02:11:10.891Z,99.90
2023-02-27T02:13:41.335Z,99.90
2023-02-27T02:16:54.859Z,99.90
2023-02-27T02:20:21.384Z,99.90
2023-02-27T02:23:32.533Z,99.90
2023-02-27T02:26:09.012Z,99.90
2023-02-27T02:29:13.620Z,99.90
2023-02-27T02:32:13.116Z,99.90
2023-02-27T02:35:27.973Z,99.90
2023-02-27T02:38:19.454Z,99.90
2023-02-27T02:41:18.751Z,99.90
2023-02-27T02:44:15.556Z,99.90
2023-02-27T02:46:57.007Z,99.90
2023-02-27T02:49:52.241Z,99.90
2023-02-27T02:53:00.098Z,99.90
2023-02-27T02:55:38.500Z,99.90
2023-02-27T02:58:47.827Z,99.90
2023-02-27T03:01:34.966Z,99.90
2023-02-27T03:04:33.377Z,99.90
2023-02-27T03:07:29.441Z,99.90
2023-02-27T03:10:59.037Z,99.90
2023-02-27T03:13:47.115Z,99.90
2023-02-27T03:16:44.233Z,99.90
2023-02-27T03:19:18.996Z,99.90
2023-02-27T03:21:54.657Z,99.90
2023-02-27T03:24:39.299Z,99.90
2023-02-27T03:27:09.735Z,99.90
2023-02-27T03:30:01.677Z,99.90
2023-02-27T03:32:45.986Z,99.90
2023-02-27T03:35:14.413Z,99.90
2023-02-27T03:38:12.723Z,99.90
2023-02-27T03:41:14.105Z,99.90
2023-02-27T03:43:53.929Z,99.90
2023-02-27T03:46:27.902Z,99.90
2023-02-27T03:48:55.506Z,99.90
2023-02-27T03:51:28.131Z,99.90
2023-02-27T03:54:15.959Z,99.90
2023-02-27T03:56:56.734Z,99.90
2023-02-27T03:59:28.546Z,99.90
2023-02-27T04:01:59.442Z,99.90
2023-02-27T04:04:29.407Z,99.90
2023-02-27T04:07:23.928Z,99.90
2023-02-27T04:10:17.155Z,99.90
2023-02-27T04:13:12.377Z,99.90
2023-02-27T04:15:55.327Z,99.90
2023-02-27T04:18:40.945Z,99.90
2023-02-27T04:21:35.126Z,99.90
2023-02-27T04:24:27.130Z,99.90
2023-02-27T04:27:40.239Z,99.90
2023-02-27T04:30:34.455Z,99.90
2023-02-27T04:33:43.025Z,99.90
2023-02-27T04:36:20.702Z,99.90
2023-02-27T04:39:18.269Z,99.90
2023-02-27T04:42:03.562Z,99.90
2023-02-27T04:44:38.723Z,99.90
2023-02-27T04:47:10.960Z,99.90
2023-02-27T04:49:49.321Z,99.90
2023-02-27T04:52:24.442Z,99.90
2023-02-27T04:54:59.382Z,99.90
2023-02-27T04:57:49.353Z,99.90
2023-02-27T05:00:22.266Z,99.90
2023-02-27T05:03:00.191Z,99.90
2023-02-27T05:05:34.125Z,99.90
2023-02-27T05:08:39.608Z,99.90
2023-02-27T05:11:23.478Z,99.90
2023-02-27T05:14:00.383Z,99.90
2023-02-27T05:16:41.859Z,99.90
2023-02-27T05:19:11.045Z,99.90
2023-02-27T05:22:10.145Z,99.90
2023-02-27T05:24:54.242Z,99.90
2023-02-27T05:27:34.454Z,99.90
2023-02-27T05:30:32.182Z,99.90
2023-02-27T05:34:04.576Z,99.90
2023-02-27T05:37:00.019Z,99.90
2023-02-27T05:39:40.192Z,99.90
2023-02-27T05:42:38.788Z,99.90
2023-02-27T05:45:18.807Z,99.90
2023-02-27T05:48:31.940Z,99.90
2023-02-27T05:51:06.648Z,99.90
2023-02-27T05:53:46.258Z,99.90
2023-02-27T05:56:19.396Z,99.90
2023-02-27T05:59:02.325Z,99.90
2023-02-27T06:01:52.642Z,99.90
2023-02-27T06:04:21.862Z,99.90
2023-02-27T06:06:56.119Z,99.90
2023-02-27T06:09:28.125Z,99.90
2023-02-27T06:11:55.632Z,99.90
2023-02-27T06:17:35.746Z,99.90
2023-02-27T06:21:17.652Z,99.90
2023-02-27T06:23:46.519Z,99.90
2023-02-27T06:26:14.482Z,99.90
2023-02-27T06:28:42.805Z,99.90
2023-02-27T06:31:13.399Z,99.90
2023-02-27T06:33:41.025Z,99.90
2023-02-27T06:36:09.205Z,99.90
2023-02-27T06:38:37.778Z,99.90
2023-02-27T06:41:10.279Z,99.90
2023-02-27T06:43:37.750Z,99.90
2023-02-27T06:46:05.681Z,99.90
2023-02-27T06:48:33.645Z,99.90
2023-02-27T06:51:00.938Z,99.90
2023-02-27T06:53:30.542Z,99.90
2023-02-27T06:55:57.906Z,99.90
2023-02-27T06:58:25.362Z,99.90
2023-02-27T07:00:53.098Z,99.90
2023-02-27T07:03:29.752Z,99.90
2023-02-27T07:05:59.295Z,99.90
2023-02-27T07:08:26.930Z,99.90
2023-02-27T07:10:54.309Z,99.90
2023-02-27T07:13:21.871Z,99.90
2023-02-27T07:15:50.778Z,99.90
2023-02-27T07:18:20.268Z,99.90
2023-02-27T07:21:01.050Z,99.90
2023-02-27T07:23:28.424Z,99.90
2023-02-27T07:25:58.003Z,99.90
2023-02-27T07:28:25.389Z,99.90
2023-02-27T07:30:57.771Z,99.90
2023-02-27T07:33:25.723Z,99.90
2023-02-27T07:35:53.679Z,99.90
2023-02-27T07:38:29.111Z,99.90
2023-02-27T07:41:00.643Z,99.90
2023-02-27T07:43:28.188Z,99.90
2023-02-27T07:45:55.594Z,99.90
2023-02-27T07:48:23.105Z,99.90
2023-02-27T07:50:50.690Z,99.90
2023-02-27T07:53:18.118Z,99.90
2023-02-27T07:55:46.828Z,99.90
2023-02-27T07:58:16.924Z,99.90
2023-02-27T08:00:44.989Z,99.90
2023-02-27T08:03:12.814Z,99.90
2023-02-27T08:05:40.365Z,99.90
2023-02-27T08:08:07.935Z,99.90
2023-02-27T08:10:35.546Z,99.90
2023-02-27T08:13:03.900Z,99.90
2023-02-27T08:15:32.936Z,99.90
2023-02-27T08:18:00.726Z,99.90
2023-02-27T08:20:28.398Z,99.90
2023-02-27T08:22:58.291Z,99.90
2023-02-27T08:25:26.042Z,99.90
2023-02-27T08:27:55.838Z,99.60
2023-02-27T08:30:31.654Z,98.20
2023-02-27T08:33:02.975Z,98.50
2023-02-27T08:35:32.844Z,97.60
2023-02-27T08:38:00.632Z,95.70
2023-02-27T08:40:28.047Z,96.00
2023-02-27T08:42:55.473Z,96.10
2023-02-27T08:45:23.213Z,95.00
2023-02-27T08:47:52.222Z,93.30
2023-02-27T08:50:22.473Z,94.30
2023-02-27T08:52:54.702Z,94.00
2023-02-27T08:55:22.155Z,93.70
2023-02-27T08:57:49.669Z,93.00
2023-02-27T09:00:20.813Z,93.00
2023-02-27T09:02:48.547Z,92.80
2023-02-27T09:05:16.141Z,92.50
2023-02-27T09:07:43.658Z,92.20
2023-02-27T09:10:12.438Z,92.40
2023-02-27T09:12:39.996Z,91.70
2023-02-27T09:15:08.638Z,91.70
2023-02-27T09:17:36.114Z,91.40
2023-02-27T09:20:05.393Z,91.70
2023-02-27T09:22:33.041Z,91.90
2023-02-27T09:25:00.572Z,90.50
2023-02-27T09:27:30.477Z,89.80
2023-02-27T09:29:58.187Z,90.60
2023-02-27T09:32:29.386Z,89.50
2023-02-27T09:34:57.001Z,89.90
2023-02-27T09:37:25.168Z,90.60
2023-02-27T09:39:52.595Z,90.10
2023-02-27T09:42:26.335Z,88.10
2023-02-27T09:45:07.680Z,88.20
2023-02-27T09:47:51.015Z,86.90
2023-02-27T09:50:47.517Z,86.00
2023-02-27T09:53:29.300Z,85.60
2023-02-27T09:56:07.492Z,86.00
2023-02-27T09:59:21.524Z,84.90
2023-02-27T10:01:59.735Z,84.10
2023-02-27T10:04:52.202Z,83.20
2023-02-27T10:08:07.415Z,80.50
2023-02-27T10:10:49.654Z,82.10
2023-02-27T10:13:56.175Z,81.10
2023-02-27T10:16:26.767Z,82.00
2023-02-27T10:19:02.186Z,81.20
2023-02-27T10:21:47.851Z,81.50
2023-02-27T10:24:27.811Z,80.90
2023-02-27T10:26:59.367Z,81.40
2023-02-27T10:29:42.586Z,83.60
2023-02-27T10:32:28.351Z,81.30
2023-02-27T10:35:10.302Z,81.60
2023-02-27T10:37:48.490Z,80.60
2023-02-27T10:40:17.881Z,79.40
2023-02-27T10:42:49.747Z,79.30
2023-02-27T10:45:17.416Z,78.00
2023-02-27T10:47:45.374Z,78.00
2023-02-27T10:50:37.055Z,78.10
2023-02-27T10:53:27.807Z,77.80
2023-02-27T10:56:04.715Z,78.20
2023-02-27T10:58:37.161Z,77.00
2023-02-27T11:01:17.495Z,77.40
2023-02-27T11:03:45.118Z,75.80
2023-02-27T11:06:26.682Z,74.40
2023-02-27T11:09:28.285Z,76.20
2023-02-27T11:12:09.959Z,76.80
2023-02-27T11:14:55.979Z,75.80
2023-02-27T11:17:34.336Z,75.10
2023-02-27T11:20:08.337Z,74.80
2023-02-27T11:22:36.265Z,76.10
2023-02-27T11:25:24.992Z,73.70
2023-02-27T11:28:11.904Z,72.90
2023-02-27T11:30:39.635Z,74.50
2023-02-27T11:33:20.351Z,73.80
2023-02-27T11:35:57.117Z,74.80
2023-02-27T11:38:35.067Z,74.20
2023-02-27T11:41:08.713Z,74.00
2023-02-27T11:43:48.538Z,73.60
2023-02-27T11:46:45.747Z,73.20
2023-02-27T11:49:39.977Z,72.90
2023-02-27T11:52:50.879Z,74.80
2023-02-27T11:55:25.185Z,75.50
2023-02-27T11:58:10.901Z,74.90
2023-02-27T12:01:00.221Z,75.30
2023-02-27T12:04:02.769Z,75.60
2023-02-27T12:06:44.789Z,73.80
2023-02-27T12:09:27.343Z,72.30
2023-02-27T12:11:56.717Z,73.70
2023-02-27T12:14:45.611Z,73.90
2023-02-27T12:17:45.192Z,75.00
2023-02-27T12:20:31.205Z,75.30
2023-02-27T12:23:00.881Z,74.70
2023-02-27T12:25:46.664Z,75.40
2023-02-27T12:28:29.683Z,71.70
2023-02-27T12:31:17.101Z,72.50
2023-02-27T12:34:11.144Z,74.60
2023-02-27T12:36:38.885Z,75.10
2023-02-27T12:39:18.094Z,74.30
2023-02-27T12:42:38.983Z,73.40
2023-02-27T12:45:54.122Z,73.60
2023-02-27T12:48:47.704Z,72.80
2023-02-27T12:51:49.804Z,72.20
2023-02-27T12:54:30.551Z,69.80
2023-02-27T12:57:45.759Z,72.00
2023-02-27T13:00:15.941Z,72.90
2023-02-27T13:03:07.909Z,73.00
2023-02-27T13:05:52.537Z,73.30
2023-02-27T13:08:44.562Z,72.90
2023-02-27T13:11:34.037Z,73.50
2023-02-27T13:14:33.159Z,73.80
2023-02-27T13:17:32.461Z,73.70
2023-02-27T13:20:37.910Z,77.00
2023-02-27T13:23:26.994Z,74.70
2023-02-27T13:25:57.874Z,75.30
2023-02-27T13:28:29.578Z,74.40
2023-02-27T13:31:41.918Z,75.50
2023-02-27T13:34:34.884Z,76.20
2023-02-27T13:37:06.461Z,75.80
2023-02-27T13:40:30.502Z,76.30
2023-02-27T13:43:06.761Z,77.30
2023-02-27T13:45:57.054Z,76.30
2023-02-27T13:48:46.083Z,78.70
2023-02-27T13:51:56.585Z,77.00
2023-02-27T13:54:31.626Z,79.10
2023-02-27T13:57:23.497Z,76.60
2023-02-27T14:00:09.272Z,78.70
2023-02-27T14:03:00.349Z,79.10
2023-02-27T14:05:43.001Z,79.90
2023-02-27T14:08:26.948Z,79.60
2023-02-27T14:11:19.173Z,80.80
2023-02-27T14:13:57.225Z,79.60
2023-02-27T14:19:49.797Z,79.40
2023-02-27T14:22:17.248Z,81.00
2023-02-27T14:25:02.824Z,81.90
2023-02-27T14:27:49.530Z,82.40
2023-02-27T14:30:41.075Z,84.40
2023-02-27T14:33:37.465Z,86.20
2023-02-27T14:36:41.866Z,84.70
2023-02-27T14:39:34.941Z,83.80
2023-02-27T14:42:37.805Z,84.50
2023-02-27T14:45:24.311Z,86.00
2023-02-27T14:47:55.389Z,85.60
2023-02-27T14:54:21.732Z,85.90
2023-02-27T14:57:04.601Z,86.40
2023-02-27T14:59:45.934Z,86.80
2023-02-27T15:02:33.356Z,85.80
2023-02-27T15:05:12.523Z,85.30
2023-02-27T15:07:40.921Z,86.30
2023-02-27T15:10:20.634Z,86.60
2023-02-27T15:12:52.464Z,86.60
2023-02-27T15:15:22.132Z,88.50
2023-02-27T15:17:55.200Z,89.50
2023-02-27T15:20:36.934Z,89.40
2023-02-27T15:23:28.244Z,89.20
2023-02-27T15:25:59.237Z,88.90
2023-02-27T15:28:38.897Z,89.70
2023-02-27T15:31:31.241Z,89.60
2023-02-27T15:34:04.012Z,88.60
2023-02-27T15:36:36.704Z,90.30
2023-02-27T15:39:18.791Z,89.90
2023-02-27T15:41:53.612Z,88.80
2023-02-27T15:44:29.161Z,90.60
2023-02-27T15:47:30.050Z,90.20
2023-02-27T15:50:51.424Z,90.60
2023-02-27T15:53:29.073Z,90.40
2023-02-27T15:56:01.051Z,90.90
2023-02-27T15:58:39.005Z,90.60
2023-02-27T16:01:25.087Z,90.80
2023-02-27T16:04:00.135Z,90.60
2023-02-27T16:06:31.697Z,91.00
2023-02-27T16:09:25.898Z,91.50
2023-02-27T16:12:30.364Z,91.70
2023-02-27T16:15:40.313Z,92.00
2023-02-27T16:18:10.538Z,92.20
2023-02-27T16:20:58.882Z,92.10
2023-02-27T16:23:32.207Z,92.60
2023-02-27T16:26:43.504Z,93.10
2023-02-27T16:29:34.002Z,93.80
2023-02-27T16:32:03.553Z,93.60
2023-02-27T16:34:45.118Z,94.00
2023-02-27T16:37:30.619Z,94.40
2023-02-27T16:39:57.801Z,94.20
2023-02-27T16:42:27.758Z,94.70
2023-02-27T16:44:55.141Z,95.10
2023-02-27T16:47:23.034Z,95.80
2023-02-27T16:49:50.589Z,96.20
2023-02-27T16:52:17.786Z,96.50
2023-02-27T16:54:45.173Z,96.20
2023-02-27T16:57:14.010Z,96.40
2023-02-27T16:59:41.242Z,96.30
2023-02-27T17:02:14.704Z,96.80
2023-02-27T17:04:48.049Z,95.90
2023-02-27T17:07:18.100Z,95.50
2023-02-27T17:09:48.333Z,95.80
2023-02-27T17:12:15.489Z,95.80
2023-02-27T17:14:43.018Z,96.20
2023-02-27T17:17:11.581Z,97.00
2023-02-27T17:19:39.627Z,96.90
2023-02-27T17:22:07.342Z,97.40
2023-02-27T17:24:34.672Z,97.70
2023-02-27T17:27:02.135Z,98.20
2023-02-27T17:29:43.132Z,98.30
2023-02-27T17:32:18.795Z,98.50
2023-02-27T17:34:59.952Z,98.80
2023-02-27T17:37:36.639Z,98.50
2023-02-27T17:40:08.300Z,98.30
2023-02-27T17:42:40.029Z,98.90
2023-02-27T17:45:17.240Z,99.20
2023-02-27T17:47:48.254Z,99.30
2023-02-27T17:50:26.916Z,99.20
2023-02-27T17:52:57.408Z,99.60
2023-02-27T17:55:27.053Z,99.80
2023-02-27T17:57:54.483Z,99.90
2023-02-27T18:00:30.593Z,99.90
2023-02-27T18:03:00.585Z,99.90
2023-02-27T18:05:46.033Z,99.90
2023-02-27T18:08:19.556Z,99.90
2023-02-27T18:10:48.397Z,99.90
2023-02-27T18:13:22.210Z,99.90
2023-02-27T18:15:52.125Z,99.90
2023-02-27T18:18:25.001Z,99.90
2023-02-27T18:21:23.767Z,99.90
2023-02-27T18:23:57.758Z,99.90
2023-02-27T18:26:40.131Z,99.90
2023-02-27T18:29:17.450Z,99.90
2023-02-27T18:31:50.415Z,99.90
2023-02-27T18:34:19.922Z,99.90
2023-02-27T18:36:53.797Z,99.90
2023-02-27T18:39:30.132Z,99.90
2023-02-27T18:42:02.609Z,99.90
2023-02-27T18:44:40.950Z,99.90
2023-02-27T18:47:09.803Z,99.90
2023-02-27T18:49:55.743Z,99.90
2023-02-27T18:52:23.644Z,99.90
2023-02-27T18:54:51.269Z,99.90
2023-02-27T18:57:19.254Z,99.90
2023-02-27T18:59:52.050Z,99.90
2023-02-27T19:02:22.167Z,99.90
2023-02-27T19:04:49.749Z,99.90
2023-02-27T19:07:18.104Z,99.90
2023-02-27T19:09:45.697Z,99.90
2023-02-27T19:12:12.961Z,99.90
2023-02-27T19:14:45.552Z,99.90
2023-02-27T19:17:15.239Z,99.90
2023-02-27T19:19:42.807Z,99.90
2023-02-27T19:22:10.072Z,99.90
2023-02-27T19:24:37.720Z,99.90
2023-02-27T19:27:05.046Z,99.90
2023-02-27T19:29:33.693Z,99.90
2023-02-27T19:32:02.488Z,99.90
2023-02-27T19:34:30.489Z,99.90
2023-02-27T19:37:00.268Z,99.90
2023-02-27T19:39:41.745Z,99.90
2023-02-27T19:42:32.121Z,99.90
2023-02-27T19:44:59.412Z,99.90
2023-02-27T19:47:29.282Z,99.90
2023-02-27T19:49:57.987Z,99.90
2023-02-27T19:52:25.718Z,99.90
2023-02-27T19:54:57.676Z,99.90
2023-02-27T19:57:29.268Z,99.90
2023-02-27T19:59:56.825Z,99.90
2023-02-27T20:02:24.503Z,99.90
2023-02-27T20:04:52.322Z,99.90
2023-02-27T20:07:22.134Z,99.90
2023-02-27T20:09:49.973Z,99.90
2023-02-27T20:12:23.606Z,99.90
2023-02-27T20:14:52.057Z,99.90
2023-02-27T20:17:19.573Z,99.90
2023-02-27T20:19:47.168Z,99.90
2023-02-27T20:22:18.509Z,99.90
2023-02-27T20:24:56.223Z,99.90
2023-02-27T20:27:23.649Z,99.90
2023-02-27T20:29:56.063Z,99.90
2023-02-27T20:32:25.202Z,99.90
2023-02-27T20:34:55.670Z,99.90
2023-02-27T20:37:23.606Z,99.90
2023-02-27T20:39:51.073Z,99.90
2023-02-27T20:42:26.015Z,99.90
2023-02-27T20:44:53.769Z,99.90
2023-02-27T20:47:24.078Z,99.90
2023-02-27T20:49:51.314Z,99.90
2023-02-27T20:52:18.701Z,99.90
2023-02-27T20:54:46.305Z,99.90
2023-02-27T20:57:13.965Z,99.90
2023-02-27T20:59:41.419Z,99.90
2023-02-27T21:02:11.103Z,99.90
2023-02-27T21:04:47.431Z,99.90
2023-02-27T21:07:19.132Z,99.90
2023-02-27T21:09:46.506Z,99.90
2023-02-27T21:12:14.452Z,99.90
2023-02-27T21:14:45.596Z,99.90
2023-02-27T21:17:14.063Z,99.90
2023-02-27T21:19:42.019Z,99.90
2023-02-27T21:22:12.257Z,99.90
2023-02-27T21:24:41.537Z,99.90
2023-02-27T21:27:19.938Z,99.90
2023-02-27T21:29:49.173Z,99.90
2023-02-27T21:32:16.821Z,99.90
2023-02-27T21:34:44.719Z,99.90
2023-02-27T21:37:12.758Z,99.90
2023-02-27T21:39:40.481Z,99.90
2023-02-27T21:42:09.335Z,99.90
2023-02-27T21:44:36.563Z,99.90
2023-02-27T21:47:15.950Z,99.90
2023-02-27T21:49:47.865Z,99.90
2023-02-27T21:52:15.944Z,99.90
2023-02-27T21:54:44.813Z,99.90
2023-02-27T21:57:13.275Z,99.90
2023-02-27T21:59:42.501Z,99.90
2023-02-27T22:02:14.820Z,99.90
2023-02-27T22:04:42.263Z,99.90
2023-02-27T22:07:11.420Z,99.90
2023-02-27T22:09:38.856Z,99.90
2023-02-27T22:12:06.712Z,99.90
2023-02-27T22:14:33.929Z,99.90
2023-02-27T22:17:01.137Z,99.90
2023-02-27T22:19:28.624Z,99.90
2023-02-27T22:21:55.774Z,99.90
2023-02-27T22:24:23.020Z,99.90
2023-02-27T22:26:50.756Z,99.90
2023-02-27T22:29:18.101Z,99.90
2023-02-27T22:31:45.641Z,99.90
2023-02-27T22:34:19.868Z,99.90
2023-02-27T22:36:48.860Z,99.90
2023-02-27T22:39:16.134Z,99.90
2023-02-27T22:41:46.256Z,99.90
2023-02-27T22:44:15.972Z,99.90
2023-02-27T22:46:47.706Z,99.90
2023-02-27T22:49:22.380Z,99.90
2023-02-27T22:51:52.310Z,99.90
2023-02-27T22:54:22.368Z,99.90
2023-02-27T22:56:52.683Z,99.90
2023-02-27T22:59:20.718Z,99.90
2023-02-27T23:01:50.175Z,99.90
2023-02-27T23:04:24.665Z,99.90
2023-02-27T23:06:54.742Z,99.90
2023-02-27T23:09:26.205Z,99.90
2023-02-27T23:11:54.910Z,99.90
2023-02-27T23:14:23.108Z,99.90
2023-02-27T23:16:51.507Z,99.90
2023-02-27T23:19:21.203Z,99.90
2023-02-27T23:21:48.521Z,99.90
2023-02-27T23:24:20.232Z,99.90
2023-02-27T23:26:54.370Z,99.90
2023-02-27T23:29:22.035Z,99.90
2023-02-27T23:31:49.436Z,99.90
2023-02-27T23:34:16.706Z,99.90
2023-02-27T23:36:43.983Z,99.90
2023-02-27T23:39:12.526Z,99.90
2023-02-27T23:41:39.751Z,99.90
2023-02-27T23:44:07.154Z,99.90
2023-02-27T23:46:35.500Z,99.90
2023-02-27T23:49:02.956Z,99.90
2023-02-27T23:51:31.547Z,99.90
2023-02-27T23:53:59.952Z,99.90
2023-02-27T23:56:30.673Z,99.90
2023-02-27T23:59:04.537Z,99.90
